Time;durP1;ratioP1;P1;durP2;ratioP2;P2;SDS_P1;SDS_P2;PMS_P1;PMS_P2;Temp;Humidity;BMP_temperature;BMP_pressure;BME280_temperature;BME280_humidity;BME280_pressure;Samples;Min_cycle;Max_cycle;Signal;HPM_P1;HPM_P2
2022/12/12 00:00:33;;;;;;;51.63;32.07;;;;;;;;;;5078054;28;20463;-69
2022/12/12 00:03:00;;;;;;;47.30;30.43;;;;;;;;;;5071784;28;20512;-69
2022/12/12 00:05:28;;;;;;;50.97;32.70;;;;;;;;;;5085618;28;21014;-69
2022/12/12 00:07:57;;;;;;;48.77;31.13;;;;;;;;;;5081789;28;20883;-69
2022/12/12 00:10:24;;;;;;;43.37;31.00;;;;;;;;;;5079659;28;21064;-69
2022/12/12 00:12:51;;;;;;;50.70;32.07;;;;;;;;;;5075982;28;20558;-68
2022/12/12 00:15:19;;;;;;;45.43;32.37;;;;;;;;;;5078094;28;20465;-68
2022/12/12 00:17:46;;;;;;;43.57;30.63;;;;;;;;;;5072996;28;20465;-69
2022/12/12 00:20:13;;;;;;;54.50;34.60;;;;;;;;;;5078328;28;20967;-68
2022/12/12 00:22:42;;;;;;;50.73;31.57;;;;;;;;;;5072217;28;20467;-69
2022/12/12 00:25:09;;;;;;;47.00;29.97;;;;;;;;;;5078098;28;20520;-69
2022/12/12 00:27:36;;;;;;;42.70;31.60;;;-0.10;99.90;;;;;;5075868;28;21033;-68
2022/12/12 00:30:03;;;;;;;47.10;30.80;;;;;;;;;;5078129;28;20834;-69
2022/12/12 00:32:30;;;;;;;46.87;32.13;;;;;;;;;;5088349;28;20456;-69
2022/12/12 00:34:58;;;;;;;47.97;31.13;;;-0.30;99.90;;;;;;5077791;28;20465;-68
2022/12/12 00:37:25;;;;;;;46.87;31.50;;;;;;;;;;5073225;28;20462;-69
2022/12/12 00:39:54;;;;;;;44.80;31.17;;;-0.50;99.90;;;;;;5082804;28;20473;-69
2022/12/12 00:42:21;;;;;;;51.00;31.70;;;;;;;;;;5079621;28;20472;-69
2022/12/12 00:44:48;;;;;;;45.50;31.13;;;;;;;;;;5079013;28;20505;-68
2022/12/12 00:47:15;;;;;;;53.97;32.30;;;;;;;;;;5080362;28;20461;-69
2022/12/12 00:49:42;;;;;;;48.13;32.83;;;-0.70;99.90;;;;;;5079399;28;20878;-69
2022/12/12 00:52:09;;;;;;;44.03;30.47;;;;;;;;;;5085062;28;20475;-69
2022/12/12 00:54:36;;;;;;;49.17;30.07;;;;;;;;;;5081923;28;20863;-69
2022/12/12 00:57:05;;;;;;;43.27;30.17;;;-0.80;99.90;;;;;;5073078;28;20472;-69
2022/12/12 00:59:32;;;;;;;50.90;32.10;;;-0.90;99.90;;;;;;5075821;28;20474;-68
2022/12/12 01:01:59;;;;;;;43.27;31.40;;;;;;;;;;5082282;28;20582;-69
2022/12/12 01:04:26;;;;;;;49.67;31.23;;;;;;;;;;5078522;28;21190;-69
2022/12/12 01:06:54;;;;;;;43.00;29.73;;;;;;;;;;5074314;28;20458;-69
2022/12/12 01:09:21;;;;;;;45.10;30.63;;;;;;;;;;5081215;28;20464;-69
2022/12/12 01:11:48;;;;;;;45.67;31.20;;;;;;;;;;5080669;28;20516;-69
2022/12/12 01:14:16;;;;;;;48.33;30.67;;;-0.70;99.90;;;;;;5073921;28;20846;-69
2022/12/12 01:16:44;;;;;;;46.83;29.50;;;;;;;;;;5081695;28;20868;-68
2022/12/12 01:19:11;;;;;;;40.17;28.90;;;-0.80;99.90;;;;;;5084132;28;20707;-69
2022/12/12 01:21:38;;;;;;;41.20;29.70;;;;;;;;;;5077262;28;20492;-69
2022/12/12 01:24:05;;;;;;;49.07;28.57;;;-0.80;99.90;;;;;;5077524;28;20488;-69
2022/12/12 01:26:33;;;;;;;36.80;27.47;;;;;;;;;;5074833;28;20460;-69
2022/12/12 01:29:00;;;;;;;52.73;30.50;;;;;;;;;;5075847;28;20462;-69
2022/12/12 01:31:28;;;;;;;44.10;30.23;;;-1.00;99.90;;;;;;5079207;28;20458;-69
2022/12/12 01:33:55;;;;;;;43.60;30.57;;;;;;;;;;5082031;28;20497;-69
2022/12/12 01:36:24;;;;;;;44.87;30.53;;;-1.20;99.90;;;;;;5078357;28;20473;-69
2022/12/12 01:38:53;;;;;;;43.97;29.47;;;;;;;;;;5077267;28;20824;-69
2022/12/12 01:41:20;;;;;;;39.60;27.60;;;;;;;;;;5076827;28;20527;-69
2022/12/12 01:43:48;;;;;;;42.90;28.10;;;;;;;;;;5079342;28;21021;-69
2022/12/12 01:46:32;;;;;;;45.33;28.03;;;;;;;;;;5074624;28;20462;-69
2022/12/12 01:49:01;;;;;;;40.23;26.93;;;;;;;;;;5078793;28;20785;-70
2022/12/12 01:51:30;;;;;;;41.30;28.30;;;-1.50;99.90;;;;;;5077751;28;20464;-69
2022/12/12 01:54:02;;;;;;;34.50;28.17;;;-1.50;99.90;;;;;;5076703;28;20485;-69
2022/12/12 01:56:30;;;;;;;37.63;28.30;;;;;;;;;;5080208;28;20464;-69
2022/12/12 01:58:57;;;;;;;39.23;28.30;;;;;;;;;;5078638;28;20488;-69
2022/12/12 02:01:25;;;;;;;46.07;29.60;;;;;;;;;;5078026;28;20463;-69
2022/12/12 02:03:52;;;;;;;44.23;29.53;;;;;;;;;;5081182;28;20497;-70
2022/12/12 02:06:24;;;;;;;42.80;30.10;;;;;;;;;;5076774;28;20964;-70
2022/12/12 02:08:52;;;;;;;36.10;27.00;;;;;;;;;;5077839;28;20491;-69
2022/12/12 02:11:19;;;;;;;48.97;30.97;;;;;;;;;;5074213;28;20466;-69
2022/12/12 02:13:46;;;;;;;41.17;28.43;;;;;;;;;;5077181;28;20460;-70
2022/12/12 02:16:15;;;;;;;43.57;27.33;;;;;;;;;;5079267;28;20468;-70
2022/12/12 02:18:45;;;;;;;42.43;27.77;;;;;;;;;;5077415;28;20832;-70
2022/12/12 02:21:16;;;;;;;40.47;28.00;;;;;;;;;;5079029;28;20463;-69
2022/12/12 02:23:54;;;;;;;38.23;25.57;;;;;;;;;;5078079;28;20526;-69
2022/12/12 02:26:35;;;;;;;46.80;28.37;;;;;;;;;;5072572;28;20493;-70
2022/12/12 02:29:14;;;;;;;40.53;27.50;;;;;;;;;;5073630;28;20462;-69
2022/12/12 02:31:47;;;;;;;39.93;28.00;;;;;;;;;;5075751;28;20460;-70
2022/12/12 02:34:18;;;;;;;38.50;27.03;;;;;;;;;;5078983;28;20558;-70
2022/12/12 02:36:50;;;;;;;42.90;28.50;;;;;;;;;;5076824;28;20466;-69
2022/12/12 02:39:20;;;;;;;37.67;26.63;;;;;;;;;;5080094;28;20458;-69
2022/12/12 02:41:51;;;;;;;39.00;28.93;;;;;;;;;;5078333;28;20466;-69
2022/12/12 02:44:20;;;;;;;39.37;27.57;;;;;;;;;;5075840;28;20491;-69
2022/12/12 02:46:52;;;;;;;43.10;27.30;;;;;;;;;;5074661;28;20468;-69
2022/12/12 02:49:22;;;;;;;36.37;26.13;;;;;;;;;;5078509;28;20467;-70
2022/12/12 02:51:51;;;;;;;44.20;26.87;;;;;;;;;;5077776;28;20537;-69
2022/12/12 02:54:20;;;;;;;35.43;25.67;;;;;;;;;;5078886;28;20479;-69
2022/12/12 02:56:49;;;;;;;38.37;25.87;;;;;;;;;;5079639;28;20612;-69
2022/12/12 02:59:19;;;;;;;43.10;27.20;;;;;;;;;;5076663;28;20481;-69
2022/12/12 03:01:51;;;;;;;39.80;26.03;;;;;;;;;;5080239;28;20450;-69
2022/12/12 03:10:01;;;;;;;36.93;26.10;;;;;;;;;;5076112;28;20844;-69
2022/12/12 03:12:32;;;;;;;39.17;24.80;;;;;;;;;;5078485;28;21002;-69
2022/12/12 03:15:02;;;;;;;36.30;25.53;;;;;;;;;;5074258;28;20470;-69
2022/12/12 03:17:33;;;;;;;39.40;25.30;;;;;;;;;;5076630;28;20966;-69
2022/12/12 03:20:04;;;;;;;38.30;24.53;;;;;;;;;;5077440;28;20833;-69
2022/12/12 03:22:36;;;;;;;33.70;24.97;;;;;;;;;;5073486;28;20485;-69
2022/12/12 03:25:06;;;;;;;35.70;25.30;;;;;;;;;;5077728;28;20477;-69
2022/12/12 03:27:36;;;;;;;35.17;25.03;;;;;;;;;;5080457;28;20525;-69
2022/12/12 03:30:05;;;;;;;38.10;25.60;;;;;;;;;;5079509;28;20458;-69
2022/12/12 03:32:35;;;;;;;37.13;26.50;;;;;;;;;;5074738;28;20487;-69
2022/12/12 03:35:08;;;;;;;33.20;26.07;;;;;;;;;;5072719;28;20462;-69
2022/12/12 03:37:36;;;;;;;34.70;25.20;;;;;;;;;;5077566;28;20472;-69
2022/12/12 03:40:06;;;;;;;35.63;25.27;;;;;;;;;;5079592;28;20461;-69
2022/12/12 03:42:36;;;;;;;40.30;25.73;;;;;;;;;;5080194;28;20472;-69
2022/12/12 03:45:06;;;;;;;35.00;25.77;;;;;;;;;;5085370;28;20490;-70
2022/12/12 03:47:38;;;;;;;33.97;24.10;;;;;;;;;;5085014;28;20479;-69
2022/12/12 03:50:08;;;;;;;29.67;24.80;;;;;;;;;;5079650;28;20462;-69
2022/12/12 03:52:38;;;;;;;40.00;26.10;;;;;;;;;;5080378;28;20468;-69
2022/12/12 03:55:08;;;;;;;33.90;24.80;;;;;;;;;;5083209;28;20491;-69
2022/12/12 03:57:36;;;;;;;35.03;25.50;;;;;;;;;;5083968;28;20502;-69
2022/12/12 04:00:05;;;;;;;41.30;25.03;;;;;;;;;;5086183;28;20466;-69
2022/12/12 04:02:39;;;;;;;36.77;27.20;;;;;;;;;;5075615;28;20615;-69
2022/12/12 04:05:11;;;;;;;35.13;25.33;;;;;;;;;;5075362;28;20826;-69
2022/12/12 04:07:40;;;;;;;31.73;24.20;;;;;;;;;;5077580;28;20474;-69
2022/12/12 04:12:59;;;;;;;34.97;25.53;;;;;;;;;;5079148;28;20457;-69
2022/12/12 04:15:31;;;;;;;33.13;24.43;;;;;;;;;;5085084;28;21102;-69
2022/12/12 04:18:02;;;;;;;35.00;26.63;;;;;;;;;;5078240;28;20459;-70
2022/12/12 04:23:23;;;;;;;38.60;24.43;;;;;;;;;;5080396;28;20464;-69
2022/12/12 04:28:56;;;;;;;38.80;25.50;;;;;;;;;;5079416;28;20975;-69
2022/12/12 04:31:25;;;;;;;34.00;24.93;;;;;;;;;;5079970;28;20514;-69
2022/12/12 04:33:57;;;;;;;38.07;25.07;;;;;;;;;;5080284;28;20541;-69
2022/12/12 04:36:25;;;;;;;31.43;24.50;;;;;;;;;;5085366;28;20462;-69
2022/12/12 04:38:53;;;;;;;37.33;25.70;;;;;;;;;;5078315;28;20980;-69
2022/12/12 04:41:21;;;;;;;43.20;25.60;;;;;;;;;;5078572;28;20698;-69
2022/12/12 04:43:50;;;;;;;39.77;26.87;;;;;;;;;;5075973;28;20463;-69
2022/12/12 04:46:19;;;;;;;38.60;26.00;;;;;;;;;;5076701;28;20460;-69
2022/12/12 04:48:48;;;;;;;35.83;25.20;;;;;;;;;;5082746;28;20456;-69
2022/12/12 04:51:18;;;;;;;38.77;24.93;;;;;;;;;;5078997;28;21146;-68
2022/12/12 04:53:48;;;;;;;37.03;25.70;;;;;;;;;;5077516;28;20493;-69
2022/12/12 04:56:16;;;;;;;30.27;25.33;;;;;;;;;;5076424;28;20634;-71
2022/12/12 04:58:43;;;;;;;34.90;27.00;;;;;;;;;;5076338;28;21011;-69
2022/12/12 05:01:14;;;;;;;34.80;26.70;;;;;;;;;;5080280;28;20461;-69
2022/12/12 05:03:42;;;;;;;44.43;29.67;;;;;;;;;;5071678;28;20491;-69
2022/12/12 05:06:13;;;;;;;29.87;25.37;;;-2.70;99.90;;;;;;5086865;28;20960;-69
2022/12/12 05:08:43;;;;;;;34.83;26.67;;;;;;;;;;5075887;28;21000;-69
2022/12/12 05:11:11;;;;;;;34.83;26.50;;;;;;;;;;5080878;28;20744;-69
2022/12/12 05:13:40;;;;;;;36.40;27.97;;;;;;;;;;5080342;28;20470;-69
2022/12/12 05:16:13;;;;;;;45.30;28.73;;;;;;;;;;5078384;28;20461;-69
2022/12/12 05:18:40;;;;;;;45.30;28.73;;;;;;;;;;5081326;28;20842;-69
2022/12/12 05:21:07;;;;;;;36.60;26.20;;;;;;;;;;5075797;28;20467;-69
2022/12/12 05:23:34;;;;;;;41.33;29.70;;;-2.70;99.90;;;;;;5081772;28;20554;-69
2022/12/12 05:26:08;;;;;;;38.57;27.63;;;;;;;;;;5077695;28;20493;-69
2022/12/12 05:28:36;;;;;;;42.77;28.40;;;;;;;;;;5080065;28;20472;-69
2022/12/12 05:31:03;;;;;;;38.37;27.00;;;;;;;;;;5077846;28;20464;-69
2022/12/12 05:33:30;;;;;;;29.93;23.50;;;;;;;;;;5079724;28;20469;-69
2022/12/12 05:35:57;;;;;;;38.07;27.00;;;;;;;;;;5081727;28;20550;-69
2022/12/12 05:38:24;;;;;;;36.60;26.40;;;;;;;;;;5075035;28;20463;-69
2022/12/12 05:40:52;;;;;;;39.43;26.57;;;;;;;;;;5067178;28;20584;-69
2022/12/12 05:43:20;;;;;;;38.50;30.20;;;;;;;;;;5076958;28;21019;-69
2022/12/12 05:45:47;;;;;;;42.17;27.80;;;;;;;;;;5078144;28;20485;-69
2022/12/12 05:48:14;;;;;;;44.67;28.97;;;;;;;;;;5080681;28;20470;-69
2022/12/12 05:50:41;;;;;;;37.23;25.17;;;;;;;;;;5079737;28;20837;-69
2022/12/12 05:53:09;;;;;;;41.73;27.77;;;;;;;;;;5077869;28;20472;-69
2022/12/12 05:55:36;;;;;;;30.27;25.07;;;;;;;;;;5071422;28;20469;-70
2022/12/12 05:58:03;;;;;;;35.17;26.87;;;;;;;;;;5073590;28;20466;-69
2022/12/12 06:00:31;;;;;;;33.27;25.40;;;-3.00;99.90;;;;;;5080582;28;20461;-68
2022/12/12 06:02:57;;;;;;;34.50;25.57;;;-3.10;99.90;;;;;;5078726;28;20467;-69
2022/12/12 06:05:24;;;;;;;36.93;26.80;;;;;;;;;;5082707;28;20493;-70
2022/12/12 06:07:51;;;;;;;33.37;26.90;;;-3.10;99.90;;;;;;5076889;28;20977;-69
2022/12/12 06:10:18;;;;;;;42.17;26.50;;;-3.10;99.90;;;;;;5074192;28;20464;-69
2022/12/12 06:12:45;;;;;;;36.50;26.07;;;;;;;;;;5076245;28;21032;-69
2022/12/12 06:15:12;;;;;;;51.17;29.30;;;;;;;;;;5080920;28;20471;-69
2022/12/12 06:17:41;;;;;;;37.80;26.83;;;-3.00;99.90;;;;;;5071706;28;20469;-69
2022/12/12 06:20:08;;;;;;;37.30;27.40;;;-3.10;99.90;;;;;;5072697;28;20462;-70
2022/12/12 06:22:36;;;;;;;47.43;26.17;;;;;;;;;;5081218;28;20894;-69
2022/12/12 06:25:04;;;;;;;34.33;24.80;;;-3.30;99.90;;;;;;5078006;28;20478;-69
2022/12/12 06:27:33;;;;;;;47.03;25.37;;;-3.40;99.90;;;;;;5076950;28;20463;-69
2022/12/12 06:30:00;;;;;;;31.00;26.33;;;;;;;;;;5077943;28;20838;-69
2022/12/12 06:32:27;;;;;;;38.73;24.90;;;;;;;;;;5075037;28;20472;-69
2022/12/12 06:34:56;;;;;;;33.77;25.60;;;;;;;;;;5078317;28;20470;-70
2022/12/12 06:37:23;;;;;;;36.37;25.13;;;;;;;;;;5078136;28;20454;-69
2022/12/12 06:39:50;;;;;;;43.83;26.00;;;-3.30;99.90;;;;;;5074577;28;20587;-69
2022/12/12 06:42:17;;;;;;;39.27;28.53;;;;;;;;;;5080464;28;20458;-69
2022/12/12 06:44:45;;;;;;;32.43;25.77;;;;;;;;;;5076778;28;20843;-69
2022/12/12 06:47:12;;;;;;;32.93;26.67;;;;;;;;;;5084060;28;20460;-70
2022/12/12 06:49:40;;;;;;;35.70;27.77;;;;;;;;;;5076054;28;20462;-69
2022/12/12 06:52:08;;;;;;;38.60;25.07;;;;;;;;;;5079416;28;20955;-69
2022/12/12 06:54:37;;;;;;;34.50;23.50;;;-3.40;99.90;;;;;;5077373;28;21003;-69
2022/12/12 06:57:04;;;;;;;30.97;24.17;;;;;;;;;;5079895;28;20676;-70
2022/12/12 06:59:31;;;;;;;33.30;25.63;;;;;;;;;;5082379;28;20455;-70
2022/12/12 07:01:59;;;;;;;40.07;24.90;;;;;;;;;;5072438;28;20475;-69
2022/12/12 07:04:26;;;;;;;37.30;25.20;;;-3.80;99.90;;;;;;5073193;28;20668;-69
2022/12/12 07:06:54;;;;;;;31.13;25.40;;;;;;;;;;5084371;28;20539;-69
2022/12/12 07:09:22;;;;;;;33.17;25.03;;;-4.00;99.90;;;;;;5076901;28;20545;-69
2022/12/12 07:11:49;;;;;;;30.77;25.23;;;;;;;;;;5083905;28;20473;-70
2022/12/12 07:14:16;;;;;;;33.13;27.60;;;;;;;;;;5076134;28;20490;-69
2022/12/12 07:16:43;;;;;;;36.87;25.60;;;;;;;;;;5079785;28;20462;-69
2022/12/12 07:19:10;;;;;;;29.73;25.00;;;;;;;;;;5083194;28;20457;-69
2022/12/12 07:21:37;;;;;;;29.07;24.33;;;;;;;;;;5083503;28;20462;-69
2022/12/12 07:24:05;;;;;;;30.97;24.40;;;;;;;;;;5081021;28;20961;-69
2022/12/12 07:26:33;;;;;;;39.97;26.20;;;;;;;;;;5074596;28;20943;-69
2022/12/12 07:29:02;;;;;;;36.57;26.27;;;;;;;;;;5081095;28;20917;-69
2022/12/12 07:31:29;;;;;;;38.07;26.13;;;;;;;;;;5081011;28;20457;-69
2022/12/12 07:33:56;;;;;;;39.73;25.43;;;;;;;;;;5081664;28;20998;-70
2022/12/12 07:36:23;;;;;;;38.30;24.67;;;;;;;;;;5077510;28;20466;-69
2022/12/12 07:38:50;;;;;;;35.33;25.80;;;-4.10;99.90;;;;;;5081314;28;20468;-69
2022/12/12 07:41:19;;;;;;;32.23;24.17;;;;;;;;;;5078860;28;20470;-69
2022/12/12 07:43:48;;;;;;;33.23;24.57;;;;;;;;;;5081972;28;20817;-69
2022/12/12 07:46:16;;;;;;;32.37;25.43;;;;;;;;;;5071414;28;20491;-69
2022/12/12 07:48:43;;;;;;;29.07;24.93;;;;;;;;;;5083552;28;20552;-69
2022/12/12 07:51:11;;;;;;;29.67;24.70;;;;;;;;;;5083742;28;20477;-69
2022/12/12 07:53:38;;;;;;;32.70;23.80;;;;;;;;;;5080587;28;20850;-69
2022/12/12 07:56:06;;;;;;;33.50;24.73;;;-4.20;99.90;;;;;;5075480;28;20478;-70
2022/12/12 07:58:34;;;;;;;32.43;24.63;;;;;;;;;;5075498;28;20463;-70
2022/12/12 08:01:08;;;;;;;31.83;24.33;;;;;;;;;;5084295;28;20878;-69
2022/12/12 08:03:35;;;;;;;30.10;23.80;;;;;;;;;;5082833;28;20461;-68
2022/12/12 08:06:04;;;;;;;26.87;22.40;;;-4.30;99.90;;;;;;5079547;28;20839;-69
2022/12/12 08:08:32;;;;;;;31.60;23.00;;;-4.30;99.90;;;;;;5077846;28;20495;-69
2022/12/12 08:10:59;;;;;;;35.70;24.73;;;-4.30;99.90;;;;;;5081459;28;20466;-69
2022/12/12 08:13:26;;;;;;;38.13;24.40;;;-4.30;99.90;;;;;;5079167;28;20796;-69
2022/12/12 08:15:54;;;;;;;40.13;25.63;;;;;;;;;;5078401;28;20788;-69
2022/12/12 08:18:22;;;;;;;38.40;24.93;;;-4.00;99.90;;;;;;5075658;28;20470;-69
2022/12/12 08:20:49;;;;;;;36.37;25.57;;;;;;;;;;5077875;28;20471;-69
2022/12/12 08:23:16;;;;;;;34.70;24.70;;;-3.90;99.90;;;;;;5076864;28;20454;-69
2022/12/12 08:25:42;;;;;;;37.73;24.20;;;-4.00;99.90;;;;;;5077107;28;20575;-69
2022/12/12 08:28:10;;;;;;;37.80;25.43;;;;;;;;;;5076911;28;20554;-69
2022/12/12 08:30:37;;;;;;;32.13;25.27;;;-4.10;99.90;;;;;;5082217;28;20965;-69
2022/12/12 08:33:04;;;;;;;38.67;25.00;;;;;;;;;;5084589;28;20462;-70
2022/12/12 08:35:32;;;;;;;37.23;26.67;;;-4.10;99.90;;;;;;5082081;28;20454;-69
2022/12/12 08:37:59;;;;;;;37.80;25.50;;;-4.00;99.90;;;;;;5081754;28;20489;-69
2022/12/12 08:40:26;;;;;;;44.50;28.10;;;;;;;;;;5085664;28;20795;-69
2022/12/12 08:42:53;;;;;;;32.63;24.30;;;;;;;;;;5085928;28;20458;-69
2022/12/12 08:45:20;;;;;;;38.57;25.60;;;-3.90;99.90;;;;;;5088442;28;20477;-69
2022/12/12 08:47:48;;;;;;;35.20;25.90;;;;;;;;;;5088215;28;20463;-69
2022/12/12 08:50:15;;;;;;;36.43;25.70;;;-3.80;99.90;;;;;;5082585;28;20499;-69
2022/12/12 08:52:43;;;;;;;33.73;26.37;;;-3.70;99.90;;;;;;5087173;28;20990;-70
2022/12/12 08:55:10;;;;;;;43.70;26.27;;;;;;;;;;5082681;28;20487;-69
2022/12/12 08:57:38;;;;;;;30.67;25.53;;;;;;;;;;5079192;28;20918;-69
2022/12/12 09:00:07;;;;;;;42.83;25.87;;;;;;;;;;5089638;28;20485;-69
2022/12/12 09:02:34;;;;;;;38.53;27.07;;;;;;;;;;5079457;28;20484;-69
2022/12/12 09:05:01;;;;;;;44.57;26.40;;;-3.50;99.90;;;;;;5084927;28;20865;-69
2022/12/12 09:07:28;;;;;;;29.60;25.30;;;;;;;;;;5083435;28;20479;-69
2022/12/12 09:09:56;;;;;;;47.83;30.97;;;-3.30;99.90;;;;;;5080214;28;20459;-69
2022/12/12 09:12:24;;;;;;;45.03;30.70;;;;;;;;;;5076990;28;20455;-70
2022/12/12 09:14:51;;;;;;;44.23;28.10;;;-3.30;99.90;;;;;;5081164;28;20553;-69
2022/12/12 09:17:18;;;;;;;51.47;34.13;;;;;;;;;;5081267;28;20458;-69
2022/12/12 09:19:45;;;;;;;45.53;31.90;;;;;;;;;;5080469;28;20703;-69
2022/12/12 09:22:12;;;;;;;41.07;29.40;;;-3.00;99.90;;;;;;5078453;28;20556;-69
2022/12/12 09:24:39;;;;;;;42.40;28.60;;;;;;;;;;5084990;28;20504;-69
2022/12/12 09:27:08;;;;;;;46.20;30.50;;;;;;;;;;5078670;28;20494;-70
2022/12/12 09:29:35;;;;;;;44.07;29.57;;;;;;;;;;5083411;28;20543;-69
2022/12/12 09:32:05;;;;;;;45.90;26.97;;;;;;;;;;5086484;28;20567;-70
2022/12/12 09:34:32;;;;;;;42.00;24.77;;;;;;;;;;5077723;28;20510;-70
2022/12/12 09:36:59;;;;;;;38.20;26.50;;;;;;;;;;5076928;28;21335;-69
2022/12/12 09:39:26;;;;;;;39.37;23.57;;;;;;;;;;5079517;28;21129;-69
2022/12/12 09:41:54;;;;;;;34.27;25.13;;;;;;;;;;5074797;28;20815;-69
2022/12/12 09:44:24;;;;;;;38.60;23.67;;;-2.50;99.90;;;;;;5080472;28;20467;-69
2022/12/12 09:46:54;;;;;;;61.97;23.77;;;;;;;;;;5081284;28;20529;-69
2022/12/12 09:49:25;;;;;;;45.27;25.50;;;;;;;;;;5079419;28;20501;-69
2022/12/12 09:51:52;;;;;;;51.80;24.10;;;;;;;;;;5083039;28;20471;-70
2022/12/12 09:54:20;;;;;;;39.13;23.07;;;;;;;;;;5081573;28;20526;-69
2022/12/12 09:56:53;;;;;;;39.43;26.13;;;;;;;;;;5076464;28;20463;-69
2022/12/12 09:59:23;;;;;;;46.23;25.67;;;;;;;;;;5083866;28;20492;-69
2022/12/12 10:01:59;;;;;;;45.73;26.80;;;;;;;;;;5068996;28;20680;-70
2022/12/12 10:04:32;;;;;;;48.43;25.27;;;;;;;;;;5083424;28;20486;-70
2022/12/12 10:07:02;;;;;;;49.23;32.10;;;;;;;;;;5079969;28;20971;-69
2022/12/12 10:09:41;;;;;;;42.13;25.00;;;-1.50;99.90;;;;;;5084207;28;20796;-70
2022/12/12 10:12:12;;;;;;;49.27;26.83;;;;;;;;;;5082093;28;20465;-69
2022/12/12 10:14:43;;;;;;;40.07;27.23;;;-1.40;99.90;;;;;;5073091;28;22425;-70
2022/12/12 10:17:14;;;;;;;34.70;24.50;;;;;;;;;;5077667;28;20464;-70
2022/12/12 10:19:47;;;;;;;55.97;25.33;;;-1.30;99.90;;;;;;5079634;28;20476;-69
2022/12/12 10:22:16;;;;;;;36.97;24.83;;;;;;;;;;5081142;28;20466;-70
2022/12/12 10:24:47;;;;;;;31.57;23.07;;;;;;;;;;5081941;28;20470;-70
2022/12/12 10:27:15;;;;;;;41.83;24.37;;;;;;;;;;5079706;28;20490;-70
2022/12/12 10:29:44;;;;;;;46.83;24.07;;;;;;;;;;5075520;28;20473;-71
2022/12/12 10:32:21;;;;;;;35.20;24.80;;;;;;;;;;5075414;28;20485;-70
2022/12/12 10:34:55;;;;;;;40.50;22.80;;;;;;;;;;5078486;28;20471;-70
2022/12/12 10:37:31;;;;;;;41.17;24.00;;;;;;;;;;5078949;28;20502;-70
2022/12/12 10:40:02;;;;;;;33.63;23.73;;;;;;;;;;5076441;28;20464;-70
2022/12/12 10:42:33;;;;;;;36.83;23.40;;;;;;;;;;5081251;28;20466;-71
2022/12/12 10:45:11;;;;;;;38.07;25.40;;;;;;;;;;5076593;28;20463;-70
2022/12/12 10:47:40;;;;;;;39.57;23.80;;;;;;;;;;5074646;28;20489;-70
2022/12/12 10:50:24;;;;;;;41.73;24.17;;;;;;;;;;5078577;28;20473;-70
2022/12/12 10:52:51;;;;;;;38.07;24.30;;;-0.60;99.90;;;;;;5071894;28;20902;-71
2022/12/12 10:55:20;;;;;;;38.23;23.03;;;;;;;;;;5074867;28;20513;-70
2022/12/12 10:57:47;;;;;;;35.00;24.67;;;;;;;;;;5074739;28;20473;-71
2022/12/12 11:00:18;;;;;;;38.50;25.13;;;;;;;;;;5077806;28;20449;-71
2022/12/12 11:02:47;;;;;;;33.30;24.20;;;-0.30;99.90;;;;;;5082849;28;20816;-71
2022/12/12 11:05:18;;;;;;;32.60;23.50;;;;;;;;;;5082671;28;20561;-71
2022/12/12 11:07:48;;;;;;;45.30;28.10;;;-0.30;99.90;;;;;;5081898;28;20492;-71
2022/12/12 11:10:26;;;;;;;40.80;27.87;;;-0.10;99.90;;;;;;5087095;28;20461;-71
2022/12/12 11:12:58;;;;;;;30.00;26.63;;;;;;;;;;5085624;28;20464;-71
2022/12/12 11:15:38;;;;;;;36.60;27.77;;;;;;;;;;5084756;28;20461;-71
2022/12/12 11:18:06;;;;;;;33.30;26.90;;;;;;;;;;5082606;28;20470;-71
2022/12/12 11:20:34;;;;;;;41.00;24.30;;;;;;;;;;5082645;28;20461;-71
2022/12/12 11:23:01;;;;;;;35.63;28.13;;;;;;;;;;5076785;28;20486;-71
2022/12/12 11:25:29;;;;;;;41.27;25.13;;;;;;;;;;5081469;28;20993;-71
2022/12/12 11:27:57;;;;;;;42.37;27.20;;;;;;;;;;5085959;28;20895;-71
2022/12/12 11:30:29;;;;;;;32.90;26.57;;;;;;;;;;5085997;28;20461;-71
2022/12/12 11:32:57;;;;;;;51.37;30.37;;;;;;;;;;5078594;28;20457;-71
2022/12/12 11:35:27;;;;;;;42.87;31.17;;;;;;;;;;5087505;28;20469;-71
2022/12/12 11:37:56;;;;;;;43.00;30.13;;;;;;;;;;5088075;28;20476;-71
2022/12/12 11:40:26;;;;;;;38.27;30.30;;;;;;;;;;5080285;28;20773;-71
2022/12/12 11:43:06;;;;;;;37.13;32.17;;;;;;;;;;5081767;28;20454;-72
2022/12/12 11:45:33;;;;;;;40.40;31.23;;;;;;;;;;5075230;28;20464;-71
2022/12/12 11:48:00;;;;;;;38.17;31.13;;;;;;;;;;5078889;28;20485;-72
2022/12/12 11:50:30;;;;;;;42.77;33.47;;;;;;;;;;5077712;28;20458;-71
2022/12/12 11:53:00;;;;;;;51.30;32.07;;;;;;;;;;5081226;28;20465;-71
2022/12/12 11:55:34;;;;;;;43.37;32.60;;;;;;;;;;5076014;28;20501;-71
2022/12/12 11:58:07;;;;;;;38.90;34.73;;;;;;;;;;5083599;28;20557;-71
2022/12/12 12:00:39;;;;;;;43.23;36.23;;;;;;;;;;5077097;28;20466;-70
2022/12/12 12:03:22;;;;;;;47.60;35.57;;;;;;;;;;5081286;28;20999;-70
2022/12/12 12:05:58;;;;;;;44.53;36.67;;;;;;;;;;5086459;28;20466;-70
2022/12/12 12:08:34;;;;;;;40.83;36.93;;;;;;;;;;5087870;28;20492;-70
2022/12/12 12:11:09;;;;;;;40.20;36.30;;;;;;;;;;5079140;28;21103;-70
2022/12/12 12:13:44;;;;;;;43.37;39.43;;;;;;;;;;5086032;28;20460;-69
2022/12/12 12:16:16;;;;;;;42.77;38.53;;;;;;;;;;5088525;28;20554;-69
2022/12/12 12:18:52;;;;;;;39.27;35.77;;;;;;;;;;5081779;28;20461;-69
2022/12/12 12:21:26;;;;;;;39.23;35.50;;;;;;;;;;5077300;28;20473;-68
2022/12/12 12:23:59;;;;;;;39.07;35.17;;;;;;;;;;5074933;28;21027;-69
2022/12/12 12:26:34;;;;;;;38.07;32.30;;;7.00;99.90;;;;;;5089334;28;20493;-69
2022/12/12 12:29:18;;;;;;;36.00;32.63;;;;;;;;;;5081707;28;20458;-69
2022/12/12 12:31:49;;;;;;;39.73;31.80;;;;;;;;;;5080378;28;20468;-69
2022/12/12 12:34:22;;;;;;;46.13;34.77;;;;;;;;;;5091638;28;20482;-69
2022/12/12 12:36:59;;;;;;;34.40;29.87;;;;;;;;;;5056668;28;20464;-68
2022/12/12 12:39:34;;;;;;;40.87;29.43;;;;;;;;;;5083792;28;21048;-68
2022/12/12 12:42:08;;;;;;;36.57;28.67;;;;;;;;;;5085631;28;20489;-68
2022/12/12 12:44:43;;;;;;;33.27;27.23;;;;;;;;;;5099141;28;20550;-68
2022/12/12 12:47:15;;;;;;;27.93;25.13;;;;;;;;;;5079945;28;20848;-68
2022/12/12 12:49:45;;;;;;;33.70;25.93;;;;;;;;;;5084635;28;20471;-68
2022/12/12 12:52:15;;;;;;;32.83;26.37;;;;;;;;;;5080408;28;21029;-68
2022/12/12 12:54:44;;;;;;;33.70;26.17;;;;;;;;;;5085257;28;20482;-68
2022/12/12 12:57:13;;;;;;;30.07;25.60;;;;;;;;;;5080996;28;20469;-68
2022/12/12 12:59:42;;;;;;;26.63;23.90;;;;;;;;;;5085875;28;20524;-68
2022/12/12 13:02:14;;;;;;;36.60;25.60;;;;;;;;;;5080946;28;20469;-69
2022/12/12 13:04:45;;;;;;;27.10;24.20;;;;;;;;;;5078604;28;20489;-68
2022/12/12 13:07:17;;;;;;;29.03;25.37;;;;;;;;;;5077550;28;20984;-68
2022/12/12 13:09:47;;;;;;;32.23;26.30;;;;;;;;;;5085682;28;20991;-68
2022/12/12 13:12:16;;;;;;;28.07;25.23;;;;;;;;;;5077727;28;20962;-68
2022/12/12 13:14:46;;;;;;;44.00;37.00;;;;;;;;;;5081133;28;20468;-68
2022/12/12 13:17:17;;;;;;;27.63;24.83;;;;;;;;;;5074299;28;20461;-68
2022/12/12 13:19:46;;;;;;;25.50;23.07;;;;;;;;;;5077397;28;21019;-67
2022/12/12 13:22:16;;;;;;;28.00;24.57;;;;;;;;;;5075065;28;20458;-68
2022/12/12 13:24:46;;;;;;;26.67;24.00;;;;;;;;;;5077357;28;20509;-68
2022/12/12 13:27:17;;;;;;;25.67;23.27;;;;;;;;;;5086503;28;20484;-68
2022/12/12 13:29:47;;;;;;;29.60;23.67;;;;;;;;;;5084821;28;20874;-69
2022/12/12 13:32:23;;;;;;;27.20;24.57;;;;;;;;;;5085874;28;20465;-69
2022/12/12 13:34:52;;;;;;;26.60;23.77;;;;;;;;;;5084377;28;20982;-69
2022/12/12 13:37:22;;;;;;;28.70;24.40;;;7.80;99.90;;;;;;5081345;28;20576;-68
2022/12/12 13:39:58;;;;;;;27.60;25.10;;;;;;;;;;5073775;28;20973;-68
2022/12/12 13:42:25;;;;;;;27.10;24.50;;;7.90;99.90;;;;;;5079461;28;20461;-68
2022/12/12 13:44:52;;;;;;;26.53;23.90;;;;;;;;;;5084126;28;20469;-69
2022/12/12 13:47:38;;;;;;;28.17;25.33;;;;;;;;;;5074439;28;20509;-69
2022/12/12 13:50:06;;;;;;;28.33;25.80;;;;;;;;;;5084884;28;20834;-68
2022/12/12 13:52:36;;;;;;;27.13;24.57;;;;;;;;;;5073298;28;20868;-68
2022/12/12 13:55:20;;;;;;;27.07;24.80;;;;;;;;;;5079492;28;20654;-68
2022/12/12 13:58:06;;;;;;;26.93;23.90;;;;;;;;;;5084232;28;20469;-68
2022/12/12 14:00:34;;;;;;;27.33;24.63;;;;;;;;;;5081067;28;21181;-68
2022/12/12 14:03:04;;;;;;;26.07;23.27;;;;;;;;;;5080385;28;20610;-68
2022/12/12 14:05:33;;;;;;;25.73;23.37;;;;;;;;;;5080414;28;20511;-68
2022/12/12 14:08:07;;;;;;;27.00;23.53;;;;;;;;;;5086449;28;20841;-68
2022/12/12 14:10:36;;;;;;;26.37;23.57;;;;;;;;;;5078883;28;20458;-68
2022/12/12 14:13:17;;;;;;;28.23;22.70;;;;;;;;;;5075389;28;20455;-68
2022/12/12 14:15:45;;;;;;;25.27;22.90;;;;;;;;;;5083952;28;20476;-68
2022/12/12 14:18:19;;;;;;;26.23;23.10;;;;;;;;;;5076146;28;20463;-68
2022/12/12 14:20:53;;;;;;;25.10;22.70;;;;;;;;;;5077696;28;20465;-68
2022/12/12 14:23:26;;;;;;;24.43;22.43;;;;;;;;;;5078959;28;20453;-68